Terminal Aerodrome Forecast
Issued by NWS

Home | Current Version | Previous Version | Text Only | Print | Product List | Glossary On
Versions: 1 2 3 4 5 6 7 8 9 10 11 12 13 14 15 16
000
FTUS42 KILM 021126
TAFCRE
TAF
KCRE 021126Z 0212/0312 VRB05KT P6SM VCSH SCT020 BKN070
     FM021600 15010KT P6SM FEW025 SCT080
     FM030100 19004KT P6SM SCT120
     FM030800 22005KT 6SM -RA SCT050 BKN100=

USA.gov is the U.S. government's official web portal to all federal, state and local government web resources and services.